createdAt,value
2023-04-15T00:00:29.192Z,70.4081
2023-04-15T00:01:37.275Z,69.4175
2023-04-15T00:02:45.276Z,68.6953
2023-04-15T00:03:53.484Z,68.2529
2023-04-15T00:05:01.383Z,67.9389
2023-04-15T00:06:09.459Z,67.5940
2023-04-15T00:07:17.515Z,67.7192
2023-04-15T00:08:25.696Z,67.4283
2023-04-15T00:09:33.657Z,66.5419
2023-04-15T00:10:41.611Z,66.5247
2023-04-15T00:11:49.815Z,65.9944
2023-04-15T00:12:57.952Z,66.8292
2023-04-15T00:14:05.807Z,67.1775
2023-04-15T00:15:14.003Z,66.6869
2023-04-15T00:16:22.110Z,66.9438
2023-04-15T00:17:30.122Z,67.5721
2023-04-15T00:18:38.173Z,67.7168
2023-04-15T00:19:46.277Z,68.4464
2023-04-15T00:20:54.352Z,68.6123
2023-04-15T00:22:02.468Z,69.2323
2023-04-15T00:23:10.396Z,69.9949
2023-04-15T00:24:18.665Z,70.7430
2023-04-15T00:25:26.627Z,71.5820
2023-04-15T00:26:34.598Z,72.3703
2023-04-15T00:27:42.760Z,72.4957
2023-04-15T00:28:50.792Z,72.3327
2023-04-15T00:29:58.840Z,72.2676
2023-04-15T00:31:06.960Z,72.5516
2023-04-15T00:32:14.994Z,73.3982
2023-04-15T00:33:23.008Z,73.8060
2023-04-15T00:34:30.995Z,75.0359
2023-04-15T00:35:39.324Z,76.4196
2023-04-15T00:36:47.257Z,77.2132
2023-04-15T00:37:55.298Z,77.8851
2023-04-15T00:39:03.409Z,78.0899
2023-04-15T00:40:11.423Z,78.6154
2023-04-15T00:41:19.497Z,78.7598
2023-04-15T00:42:27.472Z,78.7615
2023-04-15T00:43:35.713Z,77.6857
2023-04-15T00:44:43.688Z,76.5070
2023-04-15T00:45:51.858Z,75.9380
2023-04-15T00:46:59.902Z,75.9161
2023-04-15T00:48:07.922Z,75.8082
2023-04-15T00:49:16.094Z,75.5598
2023-04-15T00:50:24.027Z,76.0172
2023-04-15T00:51:32.264Z,76.2907
2023-04-15T00:52:40.190Z,76.0390
2023-04-15T00:53:48.237Z,75.5588
2023-04-15T00:54:56.344Z,74.9930
2023-04-15T00:56:04.393Z,73.9748
2023-04-15T00:57:12.426Z,74.4218
2023-04-15T00:58:20.495Z,75.0267
2023-04-15T00:59:28.676Z,74.4681
2023-04-15T01:00:36.651Z,74.1441
2023-04-15T01:01:44.893Z,73.8310
2023-04-15T01:02:53.041Z,73.5172
2023-04-15T01:04:00.846Z,73.1608
2023-04-15T01:05:08.893Z,73.0650
2023-04-15T01:06:16.994Z,73.4991
2023-04-15T01:07:25.050Z,73.6921
2023-04-15T01:08:33.065Z,73.6567
2023-04-15T01:09:41.172Z,73.5539
2023-04-15T01:10:49.350Z,72.0810
2023-04-15T01:11:57.277Z,70.7337
2023-04-15T01:13:05.353Z,70.0059
2023-04-15T01:14:13.567Z,70.3149
2023-04-15T01:15:21.501Z,71.7328
2023-04-15T01:16:29.721Z,72.6346
2023-04-15T01:17:37.795Z,72.8055
2023-04-15T01:18:45.794Z,73.7525
2023-04-15T01:19:53.831Z,74.4290
2023-04-15T01:21:01.875Z,73.8721
2023-04-15T01:22:09.953Z,74.0533
2023-04-15T01:23:18.138Z,73.3658
2023-04-15T01:24:26.059Z,72.7794
2023-04-15T01:25:34.071Z,73.5141
2023-04-15T01:26:43.505Z,73.3819
2023-04-15T01:27:50.291Z,72.7058
2023-04-15T01:28:58.458Z,72.3469
2023-04-15T01:30:06.433Z,72.4779
2023-04-15T01:31:14.483Z,72.4401
2023-04-15T01:32:22.563Z,72.1138
2023-04-15T01:33:30.597Z,71.7730
2023-04-15T01:34:38.561Z,72.2687
2023-04-15T01:35:46.732Z,73.0984
2023-04-15T01:36:54.767Z,73.2913
2023-04-15T01:38:02.984Z,73.2892
2023-04-15T01:39:10.895Z,72.8810
2023-04-15T01:40:18.994Z,72.7287
2023-04-15T01:41:27.068Z,72.9439
2023-04-15T01:42:35.253Z,73.2415
2023-04-15T01:43:43.168Z,73.9021
2023-04-15T01:44:51.234Z,73.9450
2023-04-15T01:45:59.233Z,73.9952
2023-04-15T01:47:07.358Z,74.1310
2023-04-15T01:48:15.470Z,74.1263
2023-04-15T01:49:23.563Z,73.7302
2023-04-15T01:50:31.559Z,72.8534
2023-04-15T01:51:39.791Z,72.7492
2023-04-15T01:52:47.692Z,72.9929
2023-04-15T01:53:55.710Z,74.4632
2023-04-15T01:55:03.850Z,74.9542
2023-04-15T01:56:11.874Z,74.5229
2023-04-15T01:57:20.053Z,75.4619
2023-04-15T01:58:28.030Z,75.3765
2023-04-15T01:59:36.246Z,75.2150
2023-04-15T02:00:44.219Z,75.1726
2023-04-15T02:01:52.283Z,75.4299
2023-04-15T02:03:00.423Z,75.0257
2023-04-15T02:04:08.449Z,75.1923
2023-04-15T02:05:16.395Z,75.0483
2023-04-15T02:06:24.492Z,74.5549
2023-04-15T02:07:32.567Z,73.6279
2023-04-15T02:08:40.814Z,74.0189
2023-04-15T02:09:48.693Z,75.2823
2023-04-15T02:10:56.782Z,75.4165
2023-04-15T02:12:04.829Z,75.3371
2023-04-15T02:13:13.010Z,75.2524
2023-04-15T02:14:20.977Z,75.2378
2023-04-15T02:15:29.103Z,75.7821
2023-04-15T02:16:37.058Z,75.7281
2023-04-15T02:17:45.197Z,76.0942
2023-04-15T02:18:53.388Z,75.9263
2023-04-15T02:20:01.310Z,75.6833
2023-04-15T02:21:09.525Z,75.2057
2023-04-15T02:22:17.373Z,75.0646
2023-04-15T02:23:25.562Z,74.5743
2023-04-15T02:24:33.649Z,73.0218
2023-04-15T02:25:41.714Z,72.1885
2023-04-15T02:26:49.716Z,71.8023
2023-04-15T02:27:57.797Z,71.8771
2023-04-15T02:29:06.039Z,71.5322
2023-04-15T02:30:14.014Z,71.4784
2023-04-15T02:31:22.095Z,71.7299
2023-04-15T02:32:30.140Z,72.1185
2023-04-15T02:33:38.304Z,71.8339
2023-04-15T02:34:46.272Z,72.2139
2023-04-15T02:35:54.371Z,72.4302
2023-04-15T02:37:02.607Z,72.3404
2023-04-15T02:38:10.464Z,72.0312
2023-04-15T02:39:18.562Z,71.9346
2023-04-15T02:40:26.607Z,71.5510
2023-04-15T02:41:34.800Z,71.4236
2023-04-15T02:42:42.803Z,71.4675
2023-04-15T02:43:50.798Z,71.8460
2023-04-15T02:44:58.944Z,71.8214
2023-04-15T02:46:07.003Z,72.3450
2023-04-15T02:47:15.002Z,73.1497
2023-04-15T02:48:22.987Z,73.1136
2023-04-15T02:49:31.126Z,72.8501
2023-04-15T02:50:39.821Z,72.1488
2023-04-15T02:51:47.285Z,71.8530
2023-04-15T02:52:55.393Z,71.6130
2023-04-15T02:54:03.383Z,71.4268
2023-04-15T02:55:11.439Z,71.5259
2023-04-15T02:56:19.646Z,72.0753
2023-04-15T02:57:27.691Z,71.7333
2023-04-15T02:58:35.641Z,71.7230
2023-04-15T02:59:43.709Z,71.4703
2023-04-15T03:00:51.908Z,70.8554
2023-04-15T03:01:59.914Z,70.5522
2023-04-15T03:03:08.075Z,70.1960
2023-04-15T03:04:16.232Z,69.9361
2023-04-15T03:05:24.038Z,69.8945
2023-04-15T03:06:32.186Z,69.7731
2023-04-15T03:07:40.213Z,69.8522
2023-04-15T03:08:48.380Z,70.2073
2023-04-15T03:09:56.311Z,69.9687
2023-04-15T03:11:04.370Z,69.8309
2023-04-15T03:12:12.597Z,69.8498
2023-04-15T03:13:20.613Z,70.0841
2023-04-15T03:14:28.597Z,70.0372
2023-04-15T03:15:36.685Z,70.2732
2023-04-15T03:16:44.754Z,70.5560
2023-04-15T03:17:52.756Z,70.8700
2023-04-15T03:19:01.193Z,70.7644
2023-04-15T03:20:09.089Z,70.6859
2023-04-15T03:21:16.981Z,71.0006
2023-04-15T03:22:24.957Z,70.5732
2023-04-15T03:23:33.236Z,70.4150
2023-04-15T03:24:41.323Z,70.7291
2023-04-15T03:25:49.263Z,70.6038
2023-04-15T03:26:57.295Z,71.0382
2023-04-15T03:28:05.457Z,71.2385
2023-04-15T03:29:13.393Z,71.2067
2023-04-15T03:30:21.552Z,70.8824
2023-04-15T03:31:29.675Z,71.1448
2023-04-15T03:32:37.659Z,70.9863
2023-04-15T03:33:45.859Z,70.2054
2023-04-15T03:34:53.710Z,69.6040
2023-04-15T03:36:01.855Z,69.3074
2023-04-15T03:37:09.901Z,69.0596
2023-04-15T03:38:17.997Z,68.7279
2023-04-15T03:39:25.997Z,68.7245
2023-04-15T03:40:34.098Z,69.7696
2023-04-15T03:41:42.128Z,70.1961
2023-04-15T03:42:50.401Z,70.7837
2023-04-15T03:43:58.272Z,70.6148
2023-04-15T03:45:06.345Z,70.8947
2023-04-15T03:46:14.365Z,71.3658
2023-04-15T03:47:22.514Z,71.2355
2023-04-15T03:48:30.531Z,71.0900
2023-04-15T03:49:38.609Z,71.5794
2023-04-15T03:50:46.595Z,70.8839
2023-04-15T03:51:54.721Z,70.5877
2023-04-15T03:53:02.931Z,70.4204
2023-04-15T03:54:10.788Z,70.1854
2023-04-15T03:55:18.943Z,70.3029
2023-04-15T03:56:26.923Z,70.3493
2023-04-15T03:57:35.070Z,71.0416
2023-04-15T03:58:43.119Z,72.0616
2023-04-15T03:59:51.152Z,71.5928
2023-04-15T04:00:59.231Z,71.9200
2023-04-15T04:02:07.647Z,71.7060
2023-04-15T04:03:15.559Z,71.2975
2023-04-15T04:04:23.534Z,71.5065
2023-04-15T04:05:31.472Z,71.5429
2023-04-15T04:06:39.590Z,71.6328
2023-04-15T04:07:47.552Z,71.3726
2023-04-15T04:08:55.743Z,71.5500
2023-04-15T04:10:03.862Z,71.2553
2023-04-15T04:11:11.867Z,70.7985
2023-04-15T04:12:19.904Z,70.4670
2023-04-15T04:13:28.157Z,71.1074
2023-04-15T04:14:36.041Z,71.2314
2023-04-15T04:15:44.159Z,70.7461
2023-04-15T04:16:52.188Z,71.0687
2023-04-15T04:18:00.403Z,72.3227
2023-04-15T04:19:08.312Z,72.2127
2023-04-15T04:20:16.426Z,72.6255
2023-04-15T04:21:24.666Z,73.0578
2023-04-15T04:22:32.521Z,72.0238
2023-04-15T04:23:40.592Z,71.4121
2023-04-15T04:24:48.670Z,71.3637
2023-04-15T04:25:56.863Z,71.1424
2023-04-15T04:27:04.858Z,70.8775
2023-04-15T04:28:12.887Z,71.0297
2023-04-15T04:29:21.030Z,71.6811
2023-04-15T04:30:29.023Z,72.3274
2023-04-15T04:31:37.150Z,72.9459
2023-04-15T04:32:45.244Z,73.1414
2023-04-15T04:33:53.324Z,72.8768
2023-04-15T04:35:01.280Z,73.6232
2023-04-15T04:36:09.360Z,72.8838
2023-04-15T04:37:17.511Z,72.1985
2023-04-15T04:38:25.594Z,72.3560
2023-04-15T04:39:33.576Z,72.4457
2023-04-15T04:40:41.620Z,72.0454
2023-04-15T04:41:49.731Z,72.1401
2023-04-15T04:42:57.750Z,72.1333
2023-04-15T04:44:05.842Z,71.8792
2023-04-15T04:45:13.944Z,71.7776
2023-04-15T04:46:21.879Z,71.4819
2023-04-15T04:47:30.045Z,71.0505
2023-04-15T04:48:38.079Z,70.6424
2023-04-15T04:49:46.265Z,70.9503
2023-04-15T04:50:54.218Z,71.3893
2023-04-15T04:52:02.322Z,71.5418
2023-04-15T04:53:10.421Z,70.6261
2023-04-15T04:54:18.341Z,70.1721
2023-04-15T04:55:26.472Z,70.6933
2023-04-15T04:56:34.670Z,70.8365
2023-04-15T04:57:42.623Z,70.9219
2023-04-15T04:58:50.821Z,71.0932
2023-04-15T04:59:58.756Z,71.9039
2023-04-15T05:01:06.853Z,71.7680
2023-04-15T05:02:14.893Z,71.5984
2023-04-15T05:03:23.068Z,70.7391
2023-04-15T05:04:31.052Z,70.3429
2023-04-15T05:05:39.050Z,70.3889
2023-04-15T05:06:47.131Z,69.9885
2023-04-15T05:07:55.382Z,69.3388
2023-04-15T05:09:03.474Z,68.8037
2023-04-15T05:10:11.399Z,68.5006
2023-04-15T05:11:19.335Z,68.5139
2023-04-15T05:12:27.635Z,69.1705
2023-04-15T05:13:35.555Z,69.0089
2023-04-15T05:14:43.604Z,68.5929
2023-04-15T05:15:51.887Z,68.7173
2023-04-15T05:16:59.758Z,69.0384
2023-04-15T05:18:07.889Z,68.7206
2023-04-15T05:19:15.866Z,69.1095
2023-04-15T05:20:24.025Z,69.1794
2023-04-15T05:21:31.991Z,69.4094
2023-04-15T05:22:40.131Z,69.7999
2023-04-15T05:23:48.049Z,70.0768
2023-04-15T05:24:56.202Z,70.4424
2023-04-15T05:26:04.256Z,70.5827
2023-04-15T05:27:12.376Z,70.7345
2023-04-15T05:28:20.360Z,70.5942
2023-04-15T05:29:28.386Z,70.2826
2023-04-15T05:30:36.557Z,70.1545
2023-04-15T05:31:44.699Z,70.7663
2023-04-15T05:32:52.734Z,70.4983
2023-04-15T05:34:00.753Z,69.8817
2023-04-15T05:35:08.936Z,69.4875
2023-04-15T05:36:16.861Z,69.4153
2023-04-15T05:37:24.975Z,69.0221
2023-04-15T05:38:33.078Z,69.2672
2023-04-15T05:39:41.127Z,69.1768
2023-04-15T05:40:49.206Z,69.2950
2023-04-15T05:41:57.193Z,69.3194
2023-04-15T05:43:05.486Z,69.3330
2023-04-15T05:44:13.324Z,69.5362
2023-04-15T05:45:21.312Z,69.6365
2023-04-15T05:46:29.484Z,69.2547
2023-04-15T05:47:37.776Z,68.6984
2023-04-15T05:48:45.589Z,68.4958
2023-04-15T05:49:53.717Z,68.5172
2023-04-15T05:51:01.779Z,68.6899
2023-04-15T05:52:09.810Z,68.7552
2023-04-15T05:53:17.901Z,68.6256
2023-04-15T05:54:25.931Z,69.2286
2023-04-15T05:55:34.016Z,68.9505
2023-04-15T05:56:42.091Z,68.6945
2023-04-15T05:57:50.088Z,68.9590
2023-04-15T05:58:58.304Z,69.2119
2023-04-15T06:00:06.214Z,69.0952
2023-04-15T06:01:14.377Z,68.7629
2023-04-15T06:02:22.532Z,68.4604
2023-04-15T06:03:30.647Z,68.2235
2023-04-15T06:04:38.731Z,68.9815
2023-04-15T06:05:46.568Z,68.8668
2023-04-15T06:06:54.850Z,68.7328
2023-04-15T06:08:02.869Z,68.9898
2023-04-15T06:09:10.854Z,69.3817
2023-04-15T06:10:18.895Z,69.3110
2023-04-15T06:11:26.864Z,68.8629
2023-04-15T06:12:35.027Z,68.4671
2023-04-15T06:13:43.063Z,68.0892
2023-04-15T06:14:51.164Z,67.7883
2023-04-15T06:15:59.307Z,67.7579
2023-04-15T06:17:07.187Z,68.0193
2023-04-15T06:18:15.543Z,68.6268
2023-04-15T06:19:23.465Z,68.6179
2023-04-15T06:20:31.623Z,68.5551
2023-04-15T06:21:39.592Z,68.8086
2023-04-15T06:22:47.517Z,67.9643
2023-04-15T06:23:55.798Z,67.8832
2023-04-15T06:25:03.734Z,68.4077
2023-04-15T06:26:11.850Z,68.8187
2023-04-15T06:27:19.868Z,68.4456
2023-04-15T06:28:27.895Z,68.4186
2023-04-15T06:29:36.190Z,68.6582
2023-04-15T06:30:44.029Z,67.6113
2023-04-15T06:31:52.174Z,66.6019
2023-04-15T06:33:00.357Z,66.8690
2023-04-15T06:34:08.266Z,67.5220
2023-04-15T06:35:16.422Z,67.3104
2023-04-15T06:36:24.360Z,67.6379
2023-04-15T06:37:32.437Z,67.4195
2023-04-15T06:38:40.563Z,65.7185
2023-04-15T06:39:48.634Z,64.3593
2023-04-15T06:40:56.705Z,64.5988
2023-04-15T06:42:04.753Z,64.6499
2023-04-15T06:43:12.764Z,64.4598
2023-04-15T06:44:20.876Z,64.2800
2023-04-15T06:45:29.007Z,63.5435
2023-04-15T06:46:36.979Z,63.2656
2023-04-15T06:47:45.214Z,62.6728
2023-04-15T06:48:53.054Z,61.5882
2023-04-15T06:50:01.161Z,61.7832
2023-04-15T06:51:09.256Z,62.4815
2023-04-15T06:52:17.245Z,62.5038
2023-04-15T06:53:25.390Z,62.1134
2023-04-15T06:54:33.437Z,62.1305
2023-04-15T06:55:41.474Z,62.5523
2023-04-15T06:56:49.624Z,63.1636
2023-04-15T06:57:57.737Z,62.9636
2023-04-15T06:59:05.754Z,62.8395
2023-04-15T07:00:13.710Z,63.0369
2023-04-15T07:01:21.889Z,63.2311
2023-04-15T07:02:29.984Z,63.2872
2023-04-15T07:03:38.059Z,63.0948
2023-04-15T07:04:46.069Z,63.4420
2023-04-15T07:05:54.126Z,64.6951
2023-04-15T07:07:02.224Z,64.3870
2023-04-15T07:08:10.378Z,63.2845
2023-04-15T07:09:18.263Z,63.0747
2023-04-15T07:10:26.485Z,62.4936
2023-04-15T07:11:34.418Z,62.2913
2023-04-15T07:12:42.486Z,61.5404
2023-04-15T07:13:50.655Z,61.7844
2023-04-15T07:14:58.524Z,61.7639
2023-04-15T07:16:06.642Z,62.5950
2023-04-15T07:17:14.778Z,62.8076
2023-04-15T07:18:22.855Z,63.0884
2023-04-15T07:19:30.949Z,63.2834
2023-04-15T07:20:38.955Z,63.3687
2023-04-15T07:21:46.999Z,63.2141
2023-04-15T07:22:55.059Z,63.9733
2023-04-15T07:24:03.115Z,64.3063
2023-04-15T07:25:11.149Z,64.4221
2023-04-15T07:26:19.150Z,64.8978
2023-04-15T07:27:27.209Z,66.2291
2023-04-15T07:28:35.459Z,67.3648
2023-04-15T07:29:43.486Z,67.3689
2023-04-15T07:30:51.499Z,67.0529
2023-04-15T07:31:59.479Z,68.0150
2023-04-15T07:33:07.693Z,67.6707
2023-04-15T07:34:15.803Z,67.3674
2023-04-15T07:35:23.769Z,67.4340
2023-04-15T07:36:31.941Z,67.2327
2023-04-15T07:37:39.876Z,67.9758
2023-04-15T07:38:47.860Z,69.4676
2023-04-15T07:39:55.999Z,69.1341
2023-04-15T07:41:04.120Z,68.7691
2023-04-15T07:42:12.217Z,69.3599
2023-04-15T07:43:20.228Z,68.9715
2023-04-15T07:44:28.457Z,69.4952
2023-04-15T07:45:36.648Z,69.8362
2023-04-15T07:46:44.390Z,71.0210
2023-04-15T07:47:52.481Z,72.1450
2023-04-15T07:49:01.018Z,72.4538
2023-04-15T07:50:08.574Z,72.9440
2023-04-15T07:51:16.617Z,72.8260
2023-04-15T07:52:24.583Z,73.0924
2023-04-15T07:53:32.893Z,72.8827
2023-04-15T07:54:40.929Z,72.5584
2023-04-15T07:55:48.850Z,72.8980
2023-04-15T07:56:57.018Z,73.2253
2023-04-15T07:58:05.024Z,74.0989
2023-04-15T07:59:13.106Z,72.7523
2023-04-15T08:00:21.137Z,72.5901
2023-04-15T08:01:29.186Z,71.7455
2023-04-15T08:02:38.982Z,72.0686
2023-04-15T08:03:50.272Z,71.8333
2023-04-15T08:04:58.446Z,71.1141
2023-04-15T08:06:06.296Z,72.5190
2023-04-15T08:07:14.346Z,72.7085
2023-04-15T08:08:22.442Z,73.1574
2023-04-15T08:09:30.623Z,72.7724
2023-04-15T08:10:38.484Z,72.8285
2023-04-15T08:11:46.615Z,73.1285
2023-04-15T08:12:54.789Z,73.0287
2023-04-15T08:14:02.889Z,72.7838
2023-04-15T08:15:10.845Z,73.1092
2023-04-15T08:16:18.975Z,73.5371
2023-04-15T08:17:27.000Z,72.1647
2023-04-15T08:18:34.983Z,71.1600
2023-04-15T08:19:43.136Z,71.4983
2023-04-15T08:20:51.265Z,71.4968
2023-04-15T08:21:59.206Z,71.0442
2023-04-15T08:23:07.261Z,69.2377
2023-04-15T08:24:15.288Z,68.8717
2023-04-15T08:25:23.396Z,68.2489
2023-04-15T08:26:31.441Z,66.9281
2023-04-15T08:27:39.516Z,67.1537
2023-04-15T08:28:47.588Z,67.1811
2023-04-15T08:29:55.754Z,66.5926
2023-04-15T08:31:03.644Z,66.8004
2023-04-15T08:32:11.984Z,67.4374
2023-04-15T08:33:19.827Z,67.2986
2023-04-15T08:34:27.913Z,67.2711
2023-04-15T08:35:35.946Z,67.1856
2023-04-15T08:36:44.062Z,67.1356
2023-04-15T08:37:52.127Z,67.0728
2023-04-15T08:39:00.355Z,66.8348
2023-04-15T08:40:08.350Z,66.0892
2023-04-15T08:41:16.376Z,66.2754
2023-04-15T08:42:24.371Z,66.6383
2023-04-15T08:43:32.510Z,66.0874
2023-04-15T08:44:40.522Z,64.2867
2023-04-15T08:45:48.632Z,63.2494
2023-04-15T08:46:56.821Z,63.9223
2023-04-15T08:48:04.774Z,65.0655
2023-04-15T08:49:12.897Z,65.0875
2023-04-15T08:50:20.735Z,64.0107
2023-04-15T08:51:29.078Z,64.3445
2023-04-15T08:52:36.970Z,65.2202
2023-04-15T08:53:45.154Z,65.3481
2023-04-15T08:54:53.138Z,65.4480
2023-04-15T08:56:01.079Z,65.2628
2023-04-15T08:57:09.179Z,64.2834
2023-04-15T08:58:17.287Z,64.2621
2023-04-15T08:59:25.357Z,63.5330
2023-04-15T09:00:33.439Z,63.7126
2023-04-15T09:01:41.427Z,64.1712
2023-04-15T09:02:49.855Z,64.7000
2023-04-15T09:03:57.692Z,65.3302
2023-04-15T09:05:05.650Z,65.2509
2023-04-15T09:06:13.778Z,67.0613
2023-04-15T09:07:21.777Z,67.8254
2023-04-15T09:08:29.862Z,67.4501
2023-04-15T09:09:38.083Z,67.5528
2023-04-15T09:10:45.946Z,67.9459
2023-04-15T09:11:54.095Z,68.5110
2023-04-15T09:13:02.128Z,68.1722
2023-04-15T09:14:10.157Z,67.0470
2023-04-15T09:15:18.206Z,66.5721
2023-04-15T09:16:26.343Z,65.9995
2023-04-15T09:17:34.591Z,66.4720
2023-04-15T09:18:42.415Z,67.6112
2023-04-15T09:19:50.455Z,69.0620
2023-04-15T09:20:58.631Z,69.7346
2023-04-15T09:22:06.712Z,69.5760
2023-04-15T09:23:14.640Z,69.9682
2023-04-15T09:24:22.802Z,69.7025
2023-04-15T09:25:32.815Z,69.6402
2023-04-15T09:26:43.816Z,69.0878
2023-04-15T09:27:51.690Z,69.2704
2023-04-15T09:28:59.909Z,69.1943
2023-04-15T09:30:07.870Z,68.8162
2023-04-15T09:31:16.009Z,68.4208
2023-04-15T09:32:24.114Z,68.6911
2023-04-15T09:33:32.119Z,68.6325
2023-04-15T09:34:40.054Z,67.4623
2023-04-15T09:35:48.215Z,67.0846
2023-04-15T09:36:56.384Z,66.8581
2023-04-15T09:38:04.329Z,67.3475
2023-04-15T09:39:12.475Z,66.7120
2023-04-15T09:40:20.383Z,65.4058
2023-04-15T09:41:28.569Z,65.7128
2023-04-15T09:42:36.716Z,65.5554
2023-04-15T09:43:44.813Z,64.0511
2023-04-15T09:44:52.705Z,62.9117
2023-04-15T09:46:00.793Z,62.7415
2023-04-15T09:47:08.904Z,64.4441
2023-04-15T09:48:16.821Z,64.1297
2023-04-15T09:49:25.077Z,63.0875
2023-04-15T09:50:32.994Z,62.4250
2023-04-15T09:51:42.185Z,62.2124
2023-04-15T09:52:49.150Z,62.6889
2023-04-15T09:53:57.131Z,62.3195
2023-04-15T09:55:05.191Z,63.5666
2023-04-15T09:56:13.339Z,63.3811
2023-04-15T09:57:21.407Z,62.7788
2023-04-15T09:58:29.595Z,64.6979
2023-04-15T09:59:37.417Z,63.5100
2023-04-15T10:00:45.487Z,63.2676
2023-04-15T10:01:53.661Z,63.1352
2023-04-15T10:03:01.745Z,63.6000
2023-04-15T10:04:09.868Z,64.3024
2023-04-15T10:05:17.733Z,62.9831
2023-04-15T10:06:25.784Z,61.6637
2023-04-15T10:07:33.971Z,61.8354
2023-04-15T10:08:42.011Z,63.8022
2023-04-15T10:09:50.207Z,64.4800
2023-04-15T10:10:58.126Z,64.6403
2023-04-15T10:12:06.109Z,65.2010
2023-04-15T10:13:14.408Z,66.1188
2023-04-15T10:14:22.339Z,65.4334
2023-04-15T10:15:30.281Z,65.3409
2023-04-15T10:16:38.416Z,62.6408
2023-04-15T10:17:46.535Z,63.0200
2023-04-15T10:18:54.579Z,63.0728
2023-04-15T10:20:02.526Z,62.3290
2023-04-15T10:21:10.888Z,62.7287
2023-04-15T10:22:18.737Z,64.1105
2023-04-15T10:23:26.791Z,63.8508
2023-04-15T10:24:34.943Z,63.7832
2023-04-15T10:25:42.858Z,64.6893
2023-04-15T10:26:50.882Z,65.0346
2023-04-15T10:27:59.088Z,65.2018
2023-04-15T10:29:07.193Z,66.5543
2023-04-15T10:30:15.230Z,67.7678
2023-04-15T10:31:23.323Z,67.2398
2023-04-15T10:32:31.340Z,67.1637
2023-04-15T10:33:39.359Z,66.9831
2023-04-15T10:34:47.410Z,65.9150
2023-04-15T10:35:55.590Z,65.8864
2023-04-15T10:37:03.760Z,64.2530
2023-04-15T10:38:11.616Z,64.0495
2023-04-15T10:39:19.721Z,63.6918
2023-04-15T10:40:27.720Z,64.1962
2023-04-15T10:41:35.832Z,64.7443
2023-04-15T10:42:43.856Z,64.6896
2023-04-15T10:43:51.982Z,64.8856
2023-04-15T10:44:59.999Z,65.5139
2023-04-15T10:46:08.107Z,66.0829
2023-04-15T10:47:16.151Z,66.5343
2023-04-15T10:48:24.409Z,65.2132
2023-04-15T10:49:32.342Z,66.3671
2023-04-15T10:50:40.376Z,68.5507
2023-04-15T10:51:48.376Z,68.7556
2023-04-15T10:52:56.497Z,69.2732
2023-04-15T10:54:04.724Z,69.4109
2023-04-15T10:55:12.706Z,71.1759
2023-04-15T10:56:20.656Z,70.6469
2023-04-15T10:57:28.765Z,70.5756
2023-04-15T10:58:36.848Z,71.5150
2023-04-15T10:59:44.898Z,72.1760
2023-04-15T11:00:52.985Z,72.8130
2023-04-15T11:02:01.081Z,72.9525
2023-04-15T11:03:09.472Z,73.6472
2023-04-15T11:04:17.151Z,72.3504
2023-04-15T11:05:25.164Z,72.2528
2023-04-15T11:06:33.446Z,72.5448
2023-04-15T11:07:41.300Z,70.9383
2023-04-15T11:08:49.418Z,69.7311
2023-04-15T11:09:57.507Z,67.7569
2023-04-15T11:11:05.492Z,68.4365
2023-04-15T11:12:13.663Z,69.7241
2023-04-15T11:13:21.613Z,69.2770
2023-04-15T11:14:29.826Z,68.3773
2023-04-15T11:15:37.709Z,67.5363
2023-04-15T11:16:45.869Z,66.4610
2023-04-15T11:17:54.115Z,66.8004
2023-04-15T11:19:01.961Z,67.4828
2023-04-15T11:20:10.011Z,68.8223
2023-04-15T11:21:18.207Z,70.1248
2023-04-15T11:22:26.100Z,71.5142
2023-04-15T11:23:34.310Z,72.5013
2023-04-15T11:24:42.285Z,74.2923
2023-04-15T11:25:50.312Z,74.2779
2023-04-15T11:26:58.352Z,73.4218
2023-04-15T11:28:06.393Z,73.5656
2023-04-15T11:29:14.555Z,73.3333
2023-04-15T11:30:22.536Z,74.4658
2023-04-15T11:31:30.608Z,74.6470
2023-04-15T11:32:38.777Z,73.6180
2023-04-15T11:33:46.711Z,73.8411
2023-04-15T11:34:54.768Z,75.1121
2023-04-15T11:36:02.919Z,75.6320
2023-04-15T11:37:10.891Z,75.2445
2023-04-15T11:38:18.947Z,73.4974
2023-04-15T11:39:27.095Z,73.4007
2023-04-15T11:40:35.162Z,73.7843
2023-04-15T11:41:43.035Z,74.0861
2023-04-15T11:42:51.254Z,73.4626
2023-04-15T11:43:59.219Z,73.6236
2023-04-15T11:45:07.303Z,73.3584
2023-04-15T11:46:15.424Z,73.4679
2023-04-15T11:47:23.335Z,73.0996
2023-04-15T11:48:31.464Z,72.6654
2023-04-15T11:49:39.579Z,73.0247
2023-04-15T11:50:47.695Z,73.7091
2023-04-15T11:51:55.566Z,74.2354
2023-04-15T11:53:04.373Z,73.9555
2023-04-15T11:54:11.896Z,74.0106
2023-04-15T11:55:19.851Z,74.6330
2023-04-15T11:56:27.911Z,75.0947
2023-04-15T11:57:36.035Z,75.9775
2023-04-15T11:58:44.058Z,76.0825
2023-04-15T11:59:52.220Z,75.2430
2023-04-15T12:01:00.129Z,74.2435
2023-04-15T12:02:08.282Z,73.4256
2023-04-15T12:03:16.436Z,73.2747
2023-04-15T12:04:25.933Z,72.0952
2023-04-15T12:05:32.418Z,70.6379
2023-04-15T12:06:40.450Z,70.2737
2023-04-15T12:07:48.517Z,68.4648
2023-04-15T12:08:56.808Z,67.1356
2023-04-15T12:10:04.685Z,68.1162
2023-04-15T12:11:12.711Z,67.1313
2023-04-15T12:12:20.818Z,66.7734
2023-04-15T12:13:28.806Z,65.9042
2023-04-15T12:14:36.875Z,65.6673
2023-04-15T12:15:45.028Z,65.5596
2023-04-15T12:16:53.007Z,65.0010
2023-04-15T12:18:01.089Z,65.9484
2023-04-15T12:19:09.125Z,67.6456
2023-04-15T12:20:17.273Z,68.1751
2023-04-15T12:21:25.354Z,65.8085
2023-04-15T12:22:33.317Z,64.1917
2023-04-15T12:23:41.501Z,63.3483
2023-04-15T12:24:49.466Z,64.3106
2023-04-15T12:25:57.535Z,64.5986
2023-04-15T12:27:05.724Z,61.7962
2023-04-15T12:28:13.607Z,61.7559
2023-04-15T12:29:21.661Z,62.5530
2023-04-15T12:30:29.869Z,62.3844
2023-04-15T12:31:37.967Z,63.6355
2023-04-15T12:32:45.865Z,64.0305
2023-04-15T12:33:53.910Z,63.7888
2023-04-15T12:35:02.076Z,64.2225
2023-04-15T12:36:10.054Z,65.3078
2023-04-15T12:37:18.110Z,65.2113
2023-04-15T12:38:26.298Z,64.2449
2023-04-15T12:39:34.279Z,64.0308
2023-04-15T12:40:42.322Z,64.9647
2023-04-15T12:41:50.426Z,64.8549
2023-04-15T12:42:58.409Z,65.4939
2023-04-15T12:44:06.710Z,64.8856
2023-04-15T12:45:14.523Z,65.4443
2023-04-15T12:46:22.740Z,66.1533
2023-04-15T12:47:30.713Z,65.8399
2023-04-15T12:48:38.738Z,65.9767
2023-04-15T12:49:46.800Z,65.2835
2023-04-15T12:50:54.842Z,66.1748
2023-04-15T12:52:02.971Z,66.4604
2023-04-15T12:53:11.079Z,65.7712
2023-04-15T12:54:19.102Z,65.1387
2023-04-15T12:55:27.144Z,64.4743
2023-04-15T12:56:35.288Z,63.6805
2023-04-15T12:57:43.257Z,63.4762
2023-04-15T12:58:51.281Z,63.7275
2023-04-15T12:59:59.415Z,63.4608
2023-04-15T13:01:07.410Z,64.0638
2023-04-15T13:02:15.599Z,63.9627
2023-04-15T13:03:23.832Z,64.3715
2023-04-15T13:04:31.808Z,65.0462
2023-04-15T13:05:39.705Z,65.1865
2023-04-15T13:06:47.791Z,65.3029
2023-04-15T13:07:55.888Z,65.6763
2023-04-15T13:09:05.239Z,66.4400
2023-04-15T13:10:12.099Z,66.3744
2023-04-15T13:11:20.013Z,66.7034
2023-04-15T13:12:28.063Z,66.3963
2023-04-15T13:13:36.101Z,67.0652
2023-04-15T13:14:44.149Z,67.5293
2023-04-15T13:15:52.143Z,67.1319
2023-04-15T13:17:00.229Z,67.4852
2023-04-15T13:18:08.368Z,67.6966
2023-04-15T13:19:16.508Z,67.6445
2023-04-15T13:20:24.577Z,68.5212
2023-04-15T13:21:32.555Z,69.0817
2023-04-15T13:22:40.699Z,69.4907
2023-04-15T13:23:48.652Z,68.6389
2023-04-15T13:24:56.723Z,68.3202
2023-04-15T13:26:04.826Z,69.1639
2023-04-15T13:27:12.886Z,68.3343
2023-04-15T13:28:20.995Z,67.5295
2023-04-15T13:29:28.963Z,66.8719
2023-04-15T13:30:37.056Z,67.2445
2023-04-15T13:31:45.136Z,67.0639
2023-04-15T13:32:53.182Z,67.3461
2023-04-15T13:34:01.359Z,67.7156
2023-04-15T13:35:09.336Z,68.4489
2023-04-15T13:36:17.329Z,68.6324
2023-04-15T13:37:25.526Z,68.1659
2023-04-15T13:38:33.474Z,68.1355
2023-04-15T13:39:41.516Z,68.1153
2023-04-15T13:40:49.679Z,68.1633
2023-04-15T13:41:57.633Z,68.0177
2023-04-15T13:43:05.800Z,69.0264